Time;durP1;ratioP1;P1;durP2;ratioP2;P2;SDS_P1;SDS_P2;PMS_P1;PMS_P2;Temp;Humidity;BMP_temperature;BMP_pressure;BME280_temperature;BME280_humidity;BME280_pressure;Samples;Min_cycle;Max_cycle;Signal;HPM_P1;HPM_P2
2023/06/04 00:02:13;;;;;;;8.93;7.17;;;17.70;99.90;;;;;;5092239;28;20455;-65
2023/06/04 00:04:39;;;;;;;8.60;7.10;;;17.80;99.90;;;;;;5093000;28;20169;-64
2023/06/04 00:07:05;;;;;;;8.73;7.57;;;17.80;99.90;;;;;;5093123;28;20562;-64
2023/06/04 00:09:31;;;;;;;11.73;7.93;;;17.80;99.90;;;;;;5093433;28;20211;-65
2023/06/04 00:11:57;;;;;;;8.00;7.20;;;17.80;99.90;;;;;;5093197;28;20411;-65
2023/06/04 00:14:23;;;;;;;8.60;7.80;;;17.80;99.90;;;;;;5092822;28;20261;-65
2023/06/04 00:16:49;;;;;;;8.57;7.20;;;17.80;99.90;;;;;;5092714;28;20923;-64
2023/06/04 00:19:14;;;;;;;9.53;7.93;;;17.60;99.90;;;;;;5093219;28;20419;-64
2023/06/04 00:21:40;;;;;;;7.87;7.10;;;17.50;99.90;;;;;;5092511;28;20518;-64
2023/06/04 00:24:06;;;;;;;9.90;7.20;;;17.40;99.90;;;;;;5092858;28;20333;-64
2023/06/04 00:26:31;;;;;;;8.73;7.20;;;17.40;99.90;;;;;;5092665;28;20170;-66
2023/06/04 00:28:57;;;;;;;7.53;6.83;;;17.40;99.90;;;;;;5092384;28;20197;-66
2023/06/04 00:31:23;;;;;;;8.40;7.20;;;17.50;99.90;;;;;;5091939;28;20177;-66
2023/06/04 00:33:49;;;;;;;8.50;7.17;;;17.40;99.90;;;;;;5092224;28;20191;-66
2023/06/04 00:36:14;;;;;;;8.43;7.57;;;17.40;99.90;;;;;;5095740;28;20412;-66
2023/06/04 00:38:40;;;;;;;7.30;6.60;;;17.30;99.90;;;;;;5096277;28;20246;-66
2023/06/04 00:41:05;;;;;;;6.60;6.00;;;17.30;99.90;;;;;;5095833;28;20263;-66
2023/06/04 00:43:32;;;;;;;7.30;6.53;;;17.20;99.90;;;;;;5096617;28;20196;-66
2023/06/04 00:45:58;;;;;;;9.40;6.77;;;17.20;99.90;;;;;;5095503;28;20701;-66
2023/06/04 00:48:27;;;;;;;7.83;6.17;;;17.10;99.90;;;;;;5095838;28;20427;-66
2023/06/04 00:50:53;;;;;;;7.53;6.73;;;17.00;99.90;;;;;;5095991;28;20924;-66
2023/06/04 00:53:23;;;;;;;7.37;6.57;;;17.00;99.90;;;;;;5096279;28;20800;-66
2023/06/04 00:55:50;;;;;;;6.90;6.17;;;17.00;99.90;;;;;;5095929;28;20391;-66
2023/06/04 00:58:16;;;;;;;8.23;7.10;;;17.10;99.90;;;;;;5095757;28;20851;-66
2023/06/04 01:00:44;;;;;;;8.97;6.80;;;17.10;99.90;;;;;;5095476;28;20444;-66
2023/06/04 01:03:14;;;;;;;10.40;6.83;;;17.20;99.90;;;;;;5095616;28;20537;-66
2023/06/04 01:05:59;;;;;;;7.83;6.20;;;17.20;99.90;;;;;;5095678;28;20911;-66
2023/06/04 01:08:27;;;;;;;6.90;6.20;;;17.20;99.90;;;;;;5095632;28;20469;-66
2023/06/04 01:10:56;;;;;;;6.90;6.20;;;17.10;99.90;;;;;;5095608;28;20411;-66
2023/06/04 01:13:22;;;;;;;7.33;6.67;;;17.00;99.90;;;;;;5095588;28;20770;-66
2023/06/04 01:15:48;;;;;;;8.20;6.40;;;16.90;99.90;;;;;;5095371;28;20407;-66
2023/06/04 01:18:27;;;;;;;7.63;6.93;;;16.70;99.90;;;;;;5095302;28;20455;-66
2023/06/04 01:20:59;;;;;;;6.80;6.03;;;16.70;99.90;;;;;;5095681;28;20161;-66
2023/06/04 01:23:33;;;;;;;7.00;6.40;;;16.60;99.90;;;;;;5095831;28;20447;-66
2023/06/04 01:26:03;;;;;;;8.37;7.57;;;16.60;99.90;;;;;;5095400;28;20390;-66
2023/06/04 01:28:30;;;;;;;8.27;7.47;;;16.50;99.90;;;;;;5095594;28;20426;-66
2023/06/04 01:30:56;;;;;;;8.13;7.30;;;16.50;99.90;;;;;;5094928;28;20425;-66
2023/06/04 01:33:22;;;;;;;7.90;7.10;;;16.50;99.90;;;;;;5095310;28;20819;-66
2023/06/04 01:35:49;;;;;;;7.53;6.83;;;16.40;99.90;;;;;;5095142;28;20441;-66
2023/06/04 01:38:15;;;;;;;9.97;7.50;;;16.50;99.90;;;;;;5095271;28;20447;-66
2023/06/04 01:40:41;;;;;;;6.60;6.00;;;16.40;99.90;;;;;;5095427;28;20418;-66
2023/06/04 01:43:07;;;;;;;8.57;7.43;;;16.30;99.90;;;;;;5095185;28;20200;-66
2023/06/04 01:45:33;;;;;;;7.77;6.77;;;16.30;99.90;;;;;;5094263;28;20411;-65
2023/06/04 01:48:01;;;;;;;7.43;6.67;;;16.20;99.90;;;;;;5094866;28;20434;-66
2023/06/04 01:50:27;;;;;;;6.10;5.60;;;16.20;99.90;;;;;;5095147;28;20402;-66
2023/06/04 01:52:53;;;;;;;6.73;6.03;;;16.10;99.90;;;;;;5095493;28;20496;-66
2023/06/04 01:55:19;;;;;;;6.87;6.17;;;16.10;99.90;;;;;;5095097;28;20173;-65
2023/06/04 01:57:45;;;;;;;6.23;5.57;;;16.10;99.90;;;;;;5076694;28;20492;-66
2023/06/04 02:00:12;;;;;;;6.67;5.97;;;16.10;99.90;;;;;;5095004;28;20639;-66
2023/06/04 02:02:38;;;;;;;6.53;5.77;;;16.20;99.90;;;;;;5095282;28;20454;-65
2023/06/04 02:05:07;;;;;;;6.30;5.30;;;16.20;99.90;;;;;;5095804;28;20822;-65
2023/06/04 02:07:38;;;;;;;6.57;5.60;;;16.10;99.90;;;;;;5077195;28;20449;-66
2023/06/04 02:10:08;;;;;;;6.13;5.53;;;16.10;99.90;;;;;;5094207;28;20486;-66
2023/06/04 02:12:37;;;;;;;6.73;6.10;;;16.10;99.90;;;;;;5094645;28;20410;-66
2023/06/04 02:15:03;;;;;;;6.37;5.73;;;16.00;99.90;;;;;;5094390;28;20506;-66
2023/06/04 02:17:32;;;;;;;10.30;5.60;;;16.00;99.90;;;;;;5094007;28;20464;-66
2023/06/04 02:19:58;;;;;;;6.00;5.50;;;16.00;99.90;;;;;;5094572;28;20403;-66
2023/06/04 02:22:24;;;;;;;5.47;4.97;;;15.90;99.90;;;;;;5094440;28;20462;-66
2023/06/04 02:24:50;;;;;;;5.30;4.90;;;16.00;99.90;;;;;;5094371;28;20888;-66
2023/06/04 02:27:16;;;;;;;5.30;4.80;;;15.90;99.90;;;;;;5094360;28;20419;-66
2023/06/04 02:29:42;;;;;;;5.43;4.93;;;16.00;99.90;;;;;;5094436;28;20228;-65
2023/06/04 02:32:08;;;;;;;5.93;4.90;;;16.00;99.90;;;;;;5093577;28;20263;-66
2023/06/04 02:34:34;;;;;;;6.30;5.20;;;16.00;99.90;;;;;;5094455;28;20176;-66
2023/06/04 02:37:00;;;;;;;4.90;4.40;;;16.00;99.90;;;;;;5093925;28;21087;-65
2023/06/04 02:39:26;;;;;;;6.27;4.40;;;15.90;99.90;;;;;;5093959;28;20408;-65
2023/06/04 02:41:52;;;;;;;5.07;4.47;;;15.80;99.90;;;;;;5093341;28;20467;-66
2023/06/04 02:44:17;;;;;;;4.73;4.23;;;15.70;99.90;;;;;;5094047;28;20260;-65
2023/06/04 02:46:44;;;;;;;7.73;4.93;;;15.60;99.90;;;;;;5093173;28;20254;-65
2023/06/04 02:49:13;;;;;;;5.33;4.17;;;15.70;99.90;;;;;;5093392;28;20163;-65
2023/06/04 02:51:39;;;;;;;6.87;4.67;;;15.70;99.90;;;;;;5073848;28;20408;-66
2023/06/04 02:54:05;;;;;;;4.03;3.73;;;15.70;99.90;;;;;;5073649;28;20406;-66
2023/06/04 02:56:31;;;;;;;4.77;3.97;;;15.70;99.90;;;;;;5073380;28;20414;-66
2023/06/04 02:58:56;;;;;;;7.83;4.83;;;15.70;99.90;;;;;;5072674;28;20198;-65
2023/06/04 03:01:23;;;;;;;5.90;4.13;;;15.40;99.90;;;;;;5072803;28;20173;-65
2023/06/04 03:03:50;;;;;;;4.73;4.23;;;15.40;99.90;;;;;;5073093;28;20204;-65
2023/06/04 03:06:18;;;;;;;4.63;4.13;;;15.40;99.90;;;;;;5073422;28;20416;-65
2023/06/04 03:08:43;;;;;;;4.93;4.53;;;15.30;99.90;;;;;;5093094;28;20449;-66
2023/06/04 03:11:09;;;;;;;6.43;4.63;;;15.40;99.90;;;;;;5093805;28;20433;-66
2023/06/04 03:13:35;;;;;;;4.97;4.47;;;15.40;99.90;;;;;;5093534;28;20175;-66
2023/06/04 03:16:01;;;;;;;6.03;4.60;;;15.30;99.90;;;;;;5092862;28;20183;-65
2023/06/04 03:18:28;;;;;;;5.07;4.53;;;15.30;99.90;;;;;;5092941;28;20449;-66
2023/06/04 03:20:54;;;;;;;5.70;5.20;;;15.30;99.90;;;;;;5093297;28;20831;-66
2023/06/04 03:23:20;;;;;;;8.67;5.10;;;15.30;99.90;;;;;;5093547;28;20543;-66
2023/06/04 03:25:45;;;;;;;6.83;5.23;;;15.40;99.90;;;;;;5093031;28;20186;-65
2023/06/04 03:28:11;;;;;;;5.80;5.20;;;15.40;99.90;;;;;;5092767;28;20422;-65
2023/06/04 03:30:36;;;;;;;7.30;5.77;;;15.40;99.90;;;;;;5092532;28;20167;-66
2023/06/04 03:33:02;;;;;;;7.37;5.70;;;15.40;99.90;;;;;;5093020;28;20199;-66
2023/06/04 03:35:28;;;;;;;6.83;5.60;;;15.40;99.90;;;;;;5092839;28;20172;-66
2023/06/04 03:37:54;;;;;;;6.63;5.67;;;15.30;99.90;;;;;;5092655;28;20211;-66
2023/06/04 03:40:20;;;;;;;7.07;6.10;;;15.40;99.90;;;;;;5093041;28;20889;-66
2023/06/04 03:42:45;;;;;;;6.70;6.00;;;15.40;99.90;;;;;;5092692;28;20281;-65
2023/06/04 03:45:11;;;;;;;6.13;5.30;;;15.40;99.90;;;;;;5092517;28;20168;-66
2023/06/04 03:47:38;;;;;;;6.40;5.70;;;15.30;99.90;;;;;;5092672;28;20562;-66
2023/06/04 03:50:05;;;;;;;6.47;5.87;;;15.30;99.90;;;;;;5092680;28;20173;-65
2023/06/04 03:52:31;;;;;;;5.80;5.30;;;15.10;99.90;;;;;;5092563;28;20462;-65
2023/06/04 03:54:57;;;;;;;6.57;5.70;;;15.20;99.90;;;;;;5092571;28;20414;-66
2023/06/04 03:57:22;;;;;;;5.77;5.27;;;15.20;99.90;;;;;;5092455;28;20200;-65
2023/06/04 03:59:48;;;;;;;6.17;5.60;;;15.20;99.90;;;;;;5092882;28;20288;-65
2023/06/04 04:02:14;;;;;;;7.50;5.70;;;15.10;99.90;;;;;;5092310;28;20201;-65
2023/06/04 04:04:40;;;;;;;8.00;6.23;;;15.20;99.90;;;;;;5092818;28;20179;-65
2023/06/04 04:07:05;;;;;;;5.93;5.43;;;15.10;99.90;;;;;;5091966;28;20435;-66
2023/06/04 04:09:31;;;;;;;8.13;5.93;;;15.20;99.90;;;;;;5072842;28;20176;-66
2023/06/04 04:11:56;;;;;;;6.00;5.20;;;15.00;99.90;;;;;;5076321;28;20260;-65
2023/06/04 04:14:22;;;;;;;5.50;5.00;;;15.10;99.90;;;;;;5076362;28;20171;-65
2023/06/04 04:16:48;;;;;;;6.90;6.13;;;15.20;99.90;;;;;;5075811;28;20168;-66
2023/06/04 04:19:14;;;;;;;6.47;5.87;;;15.20;99.90;;;;;;5076237;28;20197;-65
2023/06/04 04:21:40;;;;;;;6.40;5.80;;;15.20;99.90;;;;;;5076123;28;20177;-66
2023/06/04 04:24:06;;;;;;;5.30;4.80;;;15.40;99.90;;;;;;5076423;28;20505;-66
2023/06/04 04:26:32;;;;;;;5.83;5.33;;;15.50;99.90;;;;;;5076146;28;20256;-66
2023/06/04 04:28:58;;;;;;;6.10;5.30;;;15.60;99.90;;;;;;5075978;28;20518;-66
2023/06/04 04:31:27;;;;;;;8.00;5.57;;;15.70;99.90;;;;;;5075662;28;20170;-66
2023/06/04 04:33:54;;;;;;;5.27;4.87;;;15.70;99.90;;;;;;5076289;28;20235;-66
2023/06/04 04:36:20;;;;;;;5.37;4.87;;;15.70;99.90;;;;;;5076487;28;20529;-66
2023/06/04 04:38:46;;;;;;;5.47;4.97;;;15.80;99.90;;;;;;5096183;28;20512;-66
2023/06/04 04:41:12;;;;;;;5.60;5.10;;;15.80;99.90;;;;;;5096220;28;20178;-66
2023/06/04 04:43:40;;;;;;;5.87;5.27;;;15.80;99.90;;;;;;5096206;28;20778;-66
2023/06/04 04:46:06;;;;;;;6.53;5.40;;;15.70;99.90;;;;;;5095808;28;20441;-65
2023/06/04 04:48:32;;;;;;;7.33;5.50;;;15.80;99.90;;;;;;5095835;28;20428;-66
2023/06/04 04:50:57;;;;;;;5.93;5.10;;;15.80;99.90;;;;;;5096265;28;20251;-65
2023/06/04 04:53:23;;;;;;;6.33;4.50;;;15.80;99.90;;;;;;5096035;28;20304;-66
2023/06/04 04:55:49;;;;;;;6.67;5.00;;;16.00;99.90;;;;;;5096172;28;20331;-66
2023/06/04 04:58:15;;;;;;;5.50;4.83;;;16.10;99.90;;;;;;5096107;28;20708;-65
2023/06/04 05:00:41;;;;;;;5.53;5.00;;;16.10;99.90;;;;;;5095747;28;20442;-66
2023/06/04 05:03:07;;;;;;;6.27;4.03;;;16.30;99.90;;;;;;5096170;28;20452;-65
2023/06/04 05:05:33;;;;;;;7.00;4.37;;;16.30;99.90;;;;;;5096212;28;20180;-64
2023/06/04 05:07:58;;;;;;;7.00;4.57;;;16.40;99.90;;;;;;5095778;28;20210;-66
2023/06/04 05:10:24;;;;;;;5.80;4.70;;;16.40;99.90;;;;;;5095639;28;20754;-66
2023/06/04 05:12:54;;;;;;;4.40;4.00;;;16.50;99.90;;;;;;5095610;28;20612;-66
2023/06/04 05:15:20;;;;;;;3.87;3.50;;;16.60;99.90;;;;;;5096015;28;20260;-65
2023/06/04 05:17:46;;;;;;;5.60;4.20;;;16.60;99.90;;;;;;5094866;28;20541;-65
2023/06/04 05:20:12;;;;;;;5.50;4.37;;;16.70;99.90;;;;;;5095905;28;20408;-69
2023/06/04 05:22:39;;;;;;;3.60;3.10;;;16.90;99.90;;;;;;5095316;28;20968;-69
2023/06/04 05:25:06;;;;;;;4.53;4.10;;;17.00;99.90;;;;;;5095773;28;20404;-68
2023/06/04 05:27:32;;;;;;;4.33;3.93;;;17.10;99.90;;;;;;5095310;28;20430;-69
2023/06/04 05:29:58;;;;;;;4.33;3.93;;;17.30;99.90;;;;;;5095086;28;20459;-68
2023/06/04 05:32:23;;;;;;;4.70;3.53;;;17.40;99.90;;;;;;5094656;28;20415;-69
2023/06/04 05:34:49;;;;;;;3.90;3.50;;;17.50;99.90;;;;;;5095122;28;20407;-69
2023/06/04 05:37:16;;;;;;;4.70;3.67;;;17.60;99.90;;;;;;5095133;28;20201;-68
2023/06/04 05:39:42;;;;;;;4.23;3.43;;;17.70;99.90;;;;;;5095007;28;20161;-68
2023/06/04 05:42:09;;;;;;;3.80;3.40;;;17.60;99.50;;;;;;5095337;28;20789;-68
2023/06/04 05:44:34;;;;;;;6.30;3.77;;;17.60;99.90;;;;;;5095199;28;20403;-69
2023/06/04 05:47:00;;;;;;;3.40;3.10;;;17.60;99.90;;;;;;5094333;28;20496;-69
2023/06/04 05:49:26;;;;;;;3.43;3.13;;;17.60;99.90;;;;;;5094818;28;20171;-68
2023/06/04 05:51:51;;;;;;;3.53;3.23;;;17.60;99.90;;;;;;5095072;28;20170;-68
2023/06/04 05:54:17;;;;;;;3.43;3.10;;;17.60;99.90;;;;;;5094713;28;20180;-68
2023/06/04 05:56:42;;;;;;;6.60;3.47;;;17.60;99.90;;;;;;5095111;28;20208;-68
2023/06/04 05:59:08;;;;;;;3.90;3.17;;;17.60;99.90;;;;;;5094658;28;20173;-69
2023/06/04 06:01:34;;;;;;;4.23;3.07;;;17.70;99.90;;;;;;5094383;28;20255;-68
2023/06/04 06:04:00;;;;;;;3.90;3.50;;;17.60;99.90;;;;;;5094748;28;20243;-69
2023/06/04 06:06:26;;;;;;;5.80;3.17;;;17.40;97.40;;;;;;5094732;28;20403;-68
2023/06/04 06:08:52;;;;;;;4.50;2.83;;;17.50;97.30;;;;;;5093929;28;20284;-68
2023/06/04 06:11:18;;;;;;;4.20;3.20;;;17.70;96.40;;;;;;5094548;28;20606;-68
2023/06/04 06:13:43;;;;;;;3.10;2.80;;;17.80;95.90;;;;;;5094162;28;20449;-68
2023/06/04 06:16:09;;;;;;;4.40;2.80;;;17.40;95.40;;;;;;5093919;28;20244;-68
2023/06/04 06:18:35;;;;;;;4.03;2.67;;;17.20;95.10;;;;;;5094206;28;20703;-69
2023/06/04 06:21:00;;;;;;;5.77;2.93;;;17.00;95.00;;;;;;5094463;28;20173;-68
2023/06/04 06:23:26;;;;;;;3.90;3.20;;;17.00;95.30;;;;;;5094006;28;20200;-68
2023/06/04 06:25:51;;;;;;;4.40;2.93;;;17.30;94.80;;;;;;5094360;28;20166;-69
2023/06/04 06:28:18;;;;;;;4.87;2.50;;;17.40;94.70;;;;;;5093940;28;20272;-68
2023/06/04 06:30:44;;;;;;;2.73;2.47;;;17.30;94.50;;;;;;5093584;28;20168;-68
2023/06/04 06:33:10;;;;;;;3.47;2.87;;;17.40;95.00;;;;;;5093378;28;20897;-67
2023/06/04 06:35:35;;;;;;;3.93;2.57;;;17.50;94.10;;;;;;5094057;28;20415;-69
2023/06/04 06:38:01;;;;;;;5.13;3.03;;;17.40;93.90;;;;;;5093825;28;20201;-68
2023/06/04 06:40:27;;;;;;;3.43;2.83;;;17.70;93.40;;;;;;5093799;28;20174;-68
2023/06/04 06:42:52;;;;;;;4.20;2.80;;;18.20;93.30;;;;;;5093619;28;20455;-68
2023/06/04 06:45:19;;;;;;;4.20;2.83;;;18.40;92.40;;;;;;5093383;28;20204;-69
2023/06/04 06:47:45;;;;;;;4.30;2.83;;;18.60;92.70;;;;;;5093162;28;20242;-69
2023/06/04 06:50:11;;;;;;;3.80;2.73;;;18.90;91.70;;;;;;5093615;28;20482;-68
2023/06/04 06:52:37;;;;;;;4.10;2.80;;;18.90;91.30;;;;;;5093581;28;20833;-68
2023/06/04 06:55:04;;;;;;;2.67;2.20;;;19.20;91.60;;;;;;5093583;28;20169;-68
2023/06/04 06:57:30;;;;;;;3.73;2.73;;;19.00;90.60;;;;;;5093307;28;20435;-68
2023/06/04 06:59:56;;;;;;;3.13;2.83;;;18.90;92.30;;;;;;5093521;28;20415;-68
2023/06/04 07:02:22;;;;;;;4.03;3.27;;;19.10;91.50;;;;;;5092728;28;20965;-69
2023/06/04 07:04:48;;;;;;;2.87;2.57;;;19.10;90.80;;;;;;5093400;28;20173;-68
2023/06/04 07:07:13;;;;;;;4.33;2.83;;;19.30;90.90;;;;;;5093461;28;20921;-69
2023/06/04 07:09:39;;;;;;;4.70;2.93;;;19.40;91.30;;;;;;5093335;28;20411;-68
2023/06/04 07:12:05;;;;;;;3.50;2.87;;;19.50;90.70;;;;;;5093213;28;20170;-68
2023/06/04 07:14:31;;;;;;;5.77;3.23;;;19.50;90.70;;;;;;5093540;28;20178;-69
2023/06/04 07:16:56;;;;;;;3.13;2.67;;;19.50;90.40;;;;;;5092615;28;20454;-69
2023/06/04 07:19:22;;;;;;;4.80;3.10;;;19.60;90.80;;;;;;5093207;28;20581;-68
2023/06/04 07:21:48;;;;;;;3.37;2.73;;;19.60;90.30;;;;;;5093468;28;20514;-68
2023/06/04 07:24:13;;;;;;;3.77;2.77;;;19.50;90.60;;;;;;5093014;28;20203;-69
2023/06/04 07:26:39;;;;;;;4.53;2.97;;;19.20;90.40;;;;;;5093118;28;20169;-68
2023/06/04 07:29:05;;;;;;;4.00;3.10;;;19.20;90.50;;;;;;5093250;28;20200;-68
2023/06/04 07:31:30;;;;;;;3.13;2.73;;;19.50;90.60;;;;;;5092506;28;20650;-68
2023/06/04 07:33:56;;;;;;;4.10;2.80;;;19.70;90.30;;;;;;5093196;28;20418;-69
2023/06/04 07:36:22;;;;;;;5.97;2.97;;;19.50;89.50;;;;;;5092826;28;20289;-69
2023/06/04 07:38:48;;;;;;;3.23;2.73;;;19.80;89.30;;;;;;5092993;28;20205;-68
2023/06/04 07:41:13;;;;;;;3.33;3.03;;;20.00;88.50;;;;;;5092902;28;20783;-68
2023/06/04 07:43:39;;;;;;;4.37;3.03;;;20.00;89.10;;;;;;5092710;28;20250;-69
2023/06/04 07:46:05;;;;;;;3.83;3.50;;;20.10;88.60;;;;;;5092528;28;20176;-68
2023/06/04 07:48:31;;;;;;;2.93;2.43;;;19.80;89.90;;;;;;5092834;28;20193;-68
2023/06/04 07:50:58;;;;;;;6.10;3.20;;;19.80;89.70;;;;;;5092911;28;20423;-69
2023/06/04 07:53:23;;;;;;;6.10;3.17;;;19.90;88.70;;;;;;5092797;28;20175;-68
2023/06/04 07:55:49;;;;;;;3.30;3.00;;;19.80;88.40;;;;;;5092698;28;20439;-69
2023/06/04 07:58:15;;;;;;;6.37;3.20;;;20.10;88.30;;;;;;5092880;28;20651;-68
2023/06/04 08:00:41;;;;;;;3.43;2.93;;;20.00;89.20;;;;;;5092915;28;20222;-68
2023/06/04 08:03:06;;;;;;;4.47;2.90;;;20.00;89.60;;;;;;5092166;28;20454;-68
2023/06/04 08:05:32;;;;;;;3.73;2.90;;;20.40;88.90;;;;;;5092558;28;20230;-68
2023/06/04 08:07:57;;;;;;;5.00;3.30;;;20.40;88.40;;;;;;5092753;28;20201;-69
2023/06/04 08:10:23;;;;;;;4.23;3.00;;;20.30;88.20;;;;;;5092125;28;20169;-69
2023/06/04 08:12:49;;;;;;;2.63;2.43;;;20.30;88.90;;;;;;5092531;28;20169;-68
2023/06/04 08:15:14;;;;;;;3.50;3.10;;;20.30;90.20;;;;;;5092632;28;20199;-69
2023/06/04 08:17:40;;;;;;;5.20;3.50;;;20.50;89.40;;;;;;5091867;28;20208;-69
2023/06/04 08:20:06;;;;;;;4.90;2.90;;;20.50;88.60;;;;;;5092379;28;20181;-69
2023/06/04 08:22:32;;;;;;;3.60;3.17;;;20.80;88.60;;;;;;5092200;28;20283;-69
2023/06/04 08:24:57;;;;;;;4.30;2.63;;;20.80;87.20;;;;;;5092264;28;20443;-69
2023/06/04 08:27:23;;;;;;;3.30;2.57;;;20.80;88.60;;;;;;5092514;28;20186;-69
2023/06/04 08:29:49;;;;;;;3.83;2.97;;;20.70;88.10;;;;;;5092584;28;20235;-68
2023/06/04 08:32:14;;;;;;;4.40;3.27;;;20.70;88.60;;;;;;5091960;28;20749;-68
2023/06/04 08:34:40;;;;;;;5.40;3.43;;;20.80;88.60;;;;;;5092287;28;20170;-68
2023/06/04 08:37:06;;;;;;;4.77;3.30;;;20.70;87.70;;;;;;5092225;28;20197;-69
2023/06/04 08:39:33;;;;;;;4.90;3.20;;;20.70;88.20;;;;;;5092518;28;20197;-69
2023/06/04 08:42:07;;;;;;;6.17;3.40;;;20.90;87.20;;;;;;5092158;28;20169;-68
2023/06/04 08:44:32;;;;;;;6.90;3.20;;;21.10;87.80;;;;;;5092503;28;20378;-68
2023/06/04 08:47:03;;;;;;;4.53;3.87;;;21.30;87.10;;;;;;5091616;28;20788;-68
2023/06/04 08:49:36;;;;;;;5.93;3.20;;;21.60;86.80;;;;;;5091917;28;20173;-68
2023/06/04 08:52:02;;;;;;;3.80;3.20;;;21.70;85.20;;;;;;5092213;28;20406;-68
2023/06/04 08:54:29;;;;;;;5.20;3.53;;;21.90;84.50;;;;;;5092447;28;20407;-69
2023/06/04 08:56:57;;;;;;;3.53;2.70;;;21.90;83.80;;;;;;5094383;28;20842;-69
2023/06/04 08:59:23;;;;;;;5.10;3.17;;;22.00;83.80;;;;;;5096031;28;20929;-69
2023/06/04 09:01:53;;;;;;;4.73;3.13;;;22.10;83.30;;;;;;5095405;28;20400;-69
2023/06/04 09:04:19;;;;;;;5.23;3.30;;;21.90;82.80;;;;;;5095442;28;20189;-69
2023/06/04 09:06:45;;;;;;;4.93;3.37;;;21.80;83.50;;;;;;5095713;28;20430;-69
2023/06/04 09:09:12;;;;;;;4.10;3.17;;;21.90;83.70;;;;;;5095852;28;20166;-68
2023/06/04 09:11:52;;;;;;;3.17;2.90;;;22.00;82.50;;;;;;5095340;28;20905;-68
2023/06/04 09:14:18;;;;;;;4.40;2.90;;;21.90;82.60;;;;;;5095330;28;20398;-69
2023/06/04 09:16:55;;;;;;;3.60;3.13;;;22.10;83.90;;;;;;5094836;28;20505;-69
2023/06/04 09:19:21;;;;;;;3.83;3.30;;;22.10;84.90;;;;;;5095746;28;20169;-69
2023/06/04 09:21:52;;;;;;;3.20;2.83;;;22.30;82.30;;;;;;5095417;28;20967;-69
2023/06/04 09:24:23;;;;;;;5.20;3.30;;;22.50;83.80;;;;;;5095475;28;20193;-69
2023/06/04 09:26:49;;;;;;;4.50;3.23;;;22.50;83.30;;;;;;5095944;28;20399;-69
2023/06/04 09:29:16;;;;;;;3.27;2.97;;;22.70;82.40;;;;;;5095227;28;20407;-69
2023/06/04 09:31:44;;;;;;;3.67;3.30;;;22.70;81.60;;;;;;5094692;28;20407;-69
2023/06/04 09:34:09;;;;;;;4.67;3.37;;;22.80;80.50;;;;;;5095147;28;20922;-69
2023/06/04 09:36:36;;;;;;;4.30;3.80;;;22.90;81.40;;;;;;5095307;28;20411;-68
2023/06/04 09:39:03;;;;;;;3.20;2.90;;;23.00;80.00;;;;;;5095020;28;20189;-69
2023/06/04 09:41:29;;;;;;;3.20;3.00;;;23.00;79.70;;;;;;5095040;28;20411;-69
2023/06/04 09:44:05;;;;;;;4.77;3.30;;;23.10;77.70;;;;;;5094903;28;20454;-68
2023/06/04 09:46:31;;;;;;;4.33;3.93;;;23.40;79.20;;;;;;5094375;28;20403;-68
2023/06/04 09:49:06;;;;;;;4.20;3.27;;;23.20;76.80;;;;;;5094816;28;20431;-69
2023/06/04 09:51:32;;;;;;;4.30;3.87;;;23.20;76.70;;;;;;5095579;28;20169;-68
2023/06/04 09:54:03;;;;;;;4.00;3.50;;;23.40;77.00;;;;;;5095019;28;20465;-69
2023/06/04 09:56:29;;;;;;;4.43;3.70;;;23.50;75.40;;;;;;5094983;28;20407;-69
2023/06/04 09:59:02;;;;;;;3.53;3.20;;;23.70;74.40;;;;;;5094613;28;20929;-69
2023/06/04 10:01:29;;;;;;;5.60;4.07;;;23.50;75.30;;;;;;5094402;28;20168;-68
2023/06/04 10:03:58;;;;;;;4.33;3.57;;;23.50;73.90;;;;;;5094546;28;20824;-69
2023/06/04 10:06:25;;;;;;;5.20;4.00;;;23.60;72.70;;;;;;5094528;28;20403;-69
2023/06/04 10:08:53;;;;;;;3.97;3.63;;;23.30;73.50;;;;;;5094736;28;20484;-69
2023/06/04 10:11:26;;;;;;;3.50;3.20;;;23.70;71.70;;;;;;5094416;28;20951;-68
2023/06/04 10:14:03;;;;;;;3.80;3.50;;;23.80;71.80;;;;;;5093997;28;20410;-69
2023/06/04 10:16:30;;;;;;;5.40;3.77;;;23.80;72.50;;;;;;5093899;28;20388;-68
2023/06/04 10:18:56;;;;;;;5.10;4.20;;;24.00;71.40;;;;;;5094093;28;20488;-69
2023/06/04 10:21:23;;;;;;;4.73;3.53;;;24.10;70.20;;;;;;5094443;28;20407;-69
2023/06/04 10:23:50;;;;;;;4.20;3.80;;;24.10;72.60;;;;;;5094418;28;20774;-68
2023/06/04 10:26:16;;;;;;;4.27;3.87;;;24.40;69.80;;;;;;5094300;28;20418;-69
2023/06/04 10:28:43;;;;;;;5.43;4.10;;;24.40;69.80;;;;;;5094449;28;20718;-69
2023/06/04 10:31:10;;;;;;;4.53;4.13;;;24.20;68.00;;;;;;5094223;28;20517;-69
2023/06/04 10:33:35;;;;;;;4.47;4.07;;;24.30;69.30;;;;;;5093763;28;20534;-69
2023/06/04 10:36:19;;;;;;;4.23;3.83;;;24.30;69.60;;;;;;5094613;28;20859;-69
2023/06/04 10:38:48;;;;;;;3.83;3.53;;;24.30;68.40;;;;;;5073918;28;20480;-69
2023/06/04 10:41:16;;;;;;;4.47;4.07;;;24.30;69.00;;;;;;5074208;28;20404;-69
2023/06/04 10:43:42;;;;;;;3.53;3.23;;;24.50;68.90;;;;;;5074187;28;20450;-68
2023/06/04 10:46:15;;;;;;;3.93;3.57;;;24.80;67.80;;;;;;5074358;28;20483;-69
2023/06/04 10:48:51;;;;;;;4.53;4.00;;;25.00;69.70;;;;;;5073183;28;20428;-69
2023/06/04 10:51:32;;;;;;;4.03;3.63;;;25.30;68.30;;;;;;5073568;28;20407;-69
2023/06/04 10:53:59;;;;;;;4.37;3.60;;;25.40;67.20;;;;;;5074016;28;20499;-69
2023/06/04 10:56:33;;;;;;;8.53;4.50;;;25.40;67.50;;;;;;5084443;28;20788;-73
2023/06/04 10:58:59;;;;;;;4.13;3.60;;;25.00;66.80;;;;;;5093291;28;20426;-69
2023/06/04 11:01:29;;;;;;;4.13;3.73;;;25.00;68.30;;;;;;5093984;28;20418;-68
2023/06/04 11:03:55;;;;;;;3.53;3.23;;;25.30;66.80;;;;;;5075778;28;20527;-69
2023/06/04 11:06:21;;;;;;;3.50;3.20;;;25.40;66.00;;;;;;5093750;28;20423;-68
2023/06/04 11:08:48;;;;;;;5.80;3.93;;;25.10;66.20;;;;;;5093891;28;20538;-68
2023/06/04 11:11:15;;;;;;;3.83;3.30;;;25.00;67.20;;;;;;5094087;28;20471;-68
2023/06/04 11:13:42;;;;;;;5.13;3.93;;;25.30;66.10;;;;;;5093528;28;20177;-68
2023/06/04 11:16:20;;;;;;;4.80;3.50;;;25.60;65.20;;;;;;5094039;28;20506;-68
2023/06/04 11:18:56;;;;;;;4.80;3.80;;;25.80;64.70;;;;;;5093352;28;20451;-69
2023/06/04 11:21:22;;;;;;;4.00;3.60;;;25.80;65.20;;;;;;5094869;28;20909;-68
2023/06/04 11:23:48;;;;;;;4.33;3.93;;;25.80;64.90;;;;;;5094165;28;21027;-69
2023/06/04 11:26:13;;;;;;;5.00;4.20;;;25.80;63.70;;;;;;5093703;28;20439;-69
2023/06/04 11:28:42;;;;;;;4.30;3.90;;;25.80;63.60;;;;;;5093866;28;20201;-68
2023/06/04 11:31:08;;;;;;;6.60;4.03;;;26.50;62.50;;;;;;5093237;28;20169;-68
2023/06/04 11:33:47;;;;;;;4.27;3.50;;;27.20;60.00;;;;;;5092794;28;20472;-68
2023/06/04 11:36:30;;;;;;;5.17;4.43;;;28.40;56.70;;;;;;5093507;28;20176;-68
2023/06/04 11:38:58;;;;;;;3.90;3.60;;;28.00;57.10;;;;;;5093361;28;20426;-68
2023/06/04 11:41:30;;;;;;;8.20;3.93;;;27.80;57.50;;;;;;5093170;28;20400;-68
2023/06/04 11:43:57;;;;;;;4.30;3.90;;;27.70;57.40;;;;;;5093124;28;20492;-68
2023/06/04 11:46:24;;;;;;;5.30;4.57;;;27.90;57.50;;;;;;5092968;28;20411;-68
2023/06/04 11:48:53;;;;;;;6.60;4.33;;;28.60;55.60;;;;;;5092364;28;20423;-68
2023/06/04 11:51:23;;;;;;;4.67;3.90;;;28.70;54.30;;;;;;5092817;28;20502;-68
2023/06/04 11:53:48;;;;;;;4.47;4.17;;;30.10;53.70;;;;;;5093205;28;20416;-68
2023/06/04 11:56:15;;;;;;;4.33;3.50;;;30.10;52.20;;;;;;5092967;28;20434;-68
2023/06/04 11:58:41;;;;;;;4.00;3.63;;;30.50;51.00;;;;;;5092970;28;20193;-69
2023/06/04 12:01:08;;;;;;;5.57;4.00;;;31.10;49.90;;;;;;5093059;28;20477;-69
2023/06/04 12:03:38;;;;;;;6.70;4.70;;;32.10;49.40;;;;;;5092747;28;20455;-69
2023/06/04 12:06:18;;;;;;;12.67;4.43;;;32.60;46.80;;;;;;5093258;28;20746;-68
2023/06/04 12:08:51;;;;;;;7.30;3.40;;;31.60;46.60;;;;;;5092954;28;20423;-68
2023/06/04 12:11:31;;;;;;;3.40;3.10;;;31.00;47.60;;;;;;5093332;28;20790;-68
2023/06/04 12:13:59;;;;;;;3.43;3.13;;;32.80;45.40;;;;;;5093087;28;20433;-68
2023/06/04 12:16:24;;;;;;;4.40;4.00;;;33.40;43.40;;;;;;5090274;28;20847;-69
2023/06/04 12:18:50;;;;;;;4.50;4.10;;;33.30;44.50;;;;;;5091721;28;20479;-68
2023/06/04 12:21:26;;;;;;;4.63;3.70;;;32.90;43.30;;;;;;5093015;28;20169;-68
2023/06/04 12:24:10;;;;;;;4.00;3.70;;;32.20;43.70;;;;;;5092451;28;20447;-68
2023/06/04 12:26:40;;;;;;;5.57;5.07;;;31.90;44.70;;;;;;5092845;28;20444;-68
2023/06/04 12:29:13;;;;;;;5.20;4.70;;;31.90;43.50;;;;;;5092562;28;20507;-69
2023/06/04 12:31:45;;;;;;;4.40;4.00;;;31.90;44.10;;;;;;5094828;28;20426;-68
2023/06/04 12:34:14;;;;;;;5.90;4.30;;;30.90;44.70;;;;;;5095961;28;20410;-68
2023/06/04 12:36:40;;;;;;;4.53;4.03;;;30.20;45.70;;;;;;5096617;28;20411;-68
2023/06/04 12:39:06;;;;;;;4.30;3.70;;;31.20;45.60;;;;;;5096260;28;20473;-68
2023/06/04 12:41:33;;;;;;;4.73;4.27;;;31.30;44.40;;;;;;5096356;28;20409;-68
2023/06/04 12:44:00;;;;;;;4.60;4.20;;;32.30;43.60;;;;;;5096159;28;20983;-68
2023/06/04 12:46:25;;;;;;;4.20;3.80;;;33.40;42.40;;;;;;5096357;28;20403;-68